Belleview, Florida
Current Conditions -  °F | °C
As of 1:50 PM on Monday 22 Dec 2014 (Local Time) from KOCF Reporting Station
Broken Clouds Broken Clouds  
Wind Chill: 73°   Ceiling: 2000
Heat Index: 73°   Visibility: 10mi
Dew Point: 66°   Wind: 14mph
Humidity: 78%   Direction: 180°S
Pressure: 29.91"   Gusts: 18mph
Location:  29.06°N, 82.05°W
Report Text: KOCF 221850Z 18012G16KT 10SM BKN020 23/19 A2991
Loading
Personal Weather Stations






























Interactive Weather Map New forecast layout! Learn more

10-Day Weather Forecast

Advertisements
Track Severe Weather on mobile